KCNK/CNK METAR and TAF weather

Enter ICAO airport designator
Station Type Date Time Source
KCNK METAR 2018/12/10 23:55 UTC NOAA

KCNK 102355Z AUTO 20007KT 10SM CLR M01/M05 A3020 RMK AO2 SLP245 T10061050 10022 21017 58007


Station Type Date Time Source
KCNK Decoded METAR 2018/12/10 23:55 UTC NOAA

Concordia, Blosser Municipal Airport, KS, United States (KCNK) 39-33-05N 097-39-02W 447M
Dec 10, 2018 - 06:55 PM EST / 2018.12.10 2355 UTC
Wind: from the SSW (200 degrees) at 8 MPH (7 KT):0
Visibility: 10 mile(s):0
Sky conditions: clear
Temperature: 30.9 F (-0.6 C)
Windchill: 23 F (-5 C):1
Dew Point: 23.0 F (-5.0 C)
Relative Humidity: 72%
Pressure (altimeter): 30.2 in. Hg (1022 hPa)
Pressure tendency: 0.02 inches (0.7 hPa) lower than three hours ago
ob: KCNK 102355Z AUTO 20007KT 10SM CLR M01/M05 A3020 RMK AO2 SLP245 T10061050 10022 21017 58007
cycle: 0

Station Type Date Time Source
KCNK TAF UTC NOAA

Error!


Example: see airport list